sensor_id;sensor_type;location;lat;lon;timestamp;P1;durP1;ratioP1;P2;durP2;ratioP2
3637;SDS011;1835;50.068;8.154;2022-10-24T00:01:36;11.87;;;5.10;;
3637;SDS011;1835;50.068;8.154;2022-10-24T00:04:04;13.23;;;4.80;;
3637;SDS011;1835;50.068;8.154;2022-10-24T00:06:33;12.97;;;4.77;;
3637;SDS011;1835;50.068;8.154;2022-10-24T00:09:01;13.07;;;5.33;;
3637;SDS011;1835;50.068;8.154;2022-10-24T00:11:30;26.40;;;5.70;;
3637;SDS011;1835;50.068;8.154;2022-10-24T00:13:58;13.70;;;4.87;;
3637;SDS011;1835;50.068;8.154;2022-10-24T00:16:27;14.60;;;5.20;;
3637;SDS011;1835;50.068;8.154;2022-10-24T00:18:55;11.03;;;4.80;;
3637;SDS011;1835;50.068;8.154;2022-10-24T00:21:23;12.13;;;4.87;;
3637;SDS011;1835;50.068;8.154;2022-10-24T00:23:51;15.33;;;5.00;;
3637;SDS011;1835;50.068;8.154;2022-10-24T00:26:19;11.63;;;4.73;;
3637;SDS011;1835;50.068;8.154;2022-10-24T00:28:51;6.73;;;4.30;;
3637;SDS011;1835;50.068;8.154;2022-10-24T00:31:19;14.80;;;4.90;;
3637;SDS011;1835;50.068;8.154;2022-10-24T00:33:47;17.90;;;4.80;;
3637;SDS011;1835;50.068;8.154;2022-10-24T00:36:16;13.83;;;5.33;;
3637;SDS011;1835;50.068;8.154;2022-10-24T00:38:46;13.33;;;6.40;;
3637;SDS011;1835;50.068;8.154;2022-10-24T00:41:14;15.67;;;5.10;;
3637;SDS011;1835;50.068;8.154;2022-10-24T00:43:44;11.17;;;5.57;;
3637;SDS011;1835;50.068;8.154;2022-10-24T00:46:14;18.53;;;5.93;;
3637;SDS011;1835;50.068;8.154;2022-10-24T00:48:44;11.13;;;4.73;;
3637;SDS011;1835;50.068;8.154;2022-10-24T00:51:17;15.43;;;5.73;;
3637;SDS011;1835;50.068;8.154;2022-10-24T00:53:50;23.60;;;6.37;;
3637;SDS011;1835;50.068;8.154;2022-10-24T00:56:28;15.33;;;6.30;;
3637;SDS011;1835;50.068;8.154;2022-10-24T00:59:02;14.93;;;5.90;;
3637;SDS011;1835;50.068;8.154;2022-10-24T01:01:33;28.37;;;7.00;;
3637;SDS011;1835;50.068;8.154;2022-10-24T01:04:02;21.63;;;5.90;;
3637;SDS011;1835;50.068;8.154;2022-10-24T01:06:35;19.23;;;6.90;;
3637;SDS011;1835;50.068;8.154;2022-10-24T01:09:19;17.43;;;5.57;;
3637;SDS011;1835;50.068;8.154;2022-10-24T01:12:05;17.83;;;6.77;;
3637;SDS011;1835;50.068;8.154;2022-10-24T01:14:48;19.73;;;6.20;;
3637;SDS011;1835;50.068;8.154;2022-10-24T01:17:28;14.97;;;5.97;;
3637;SDS011;1835;50.068;8.154;2022-10-24T01:20:25;9.23;;;5.70;;
3637;SDS011;1835;50.068;8.154;2022-10-24T01:23:21;13.80;;;6.10;;
3637;SDS011;1835;50.068;8.154;2022-10-24T01:29:34;10.93;;;5.30;;
3637;SDS011;1835;50.068;8.154;2022-10-24T01:32:29;30.27;;;6.50;;
3637;SDS011;1835;50.068;8.154;2022-10-24T01:35:06;18.83;;;7.13;;
3637;SDS011;1835;50.068;8.154;2022-10-24T01:37:58;15.10;;;7.03;;
3637;SDS011;1835;50.068;8.154;2022-10-24T01:40:34;12.33;;;6.53;;
3637;SDS011;1835;50.068;8.154;2022-10-24T01:43:08;11.17;;;5.63;;
3637;SDS011;1835;50.068;8.154;2022-10-24T01:45:41;22.10;;;7.90;;
3637;SDS011;1835;50.068;8.154;2022-10-24T01:48:16;16.03;;;7.03;;
3637;SDS011;1835;50.068;8.154;2022-10-24T01:50:48;22.17;;;7.00;;
3637;SDS011;1835;50.068;8.154;2022-10-24T01:53:19;23.37;;;6.67;;
3637;SDS011;1835;50.068;8.154;2022-10-24T01:55:50;18.23;;;6.70;;
3637;SDS011;1835;50.068;8.154;2022-10-24T01:58:20;38.13;;;7.57;;
3637;SDS011;1835;50.068;8.154;2022-10-24T02:00:50;18.23;;;7.67;;
3637;SDS011;1835;50.068;8.154;2022-10-24T02:03:23;21.13;;;6.93;;
3637;SDS011;1835;50.068;8.154;2022-10-24T02:05:58;24.53;;;7.10;;
3637;SDS011;1835;50.068;8.154;2022-10-24T02:08:33;23.23;;;6.67;;
3637;SDS011;1835;50.068;8.154;2022-10-24T02:11:06;14.50;;;6.43;;
3637;SDS011;1835;50.068;8.154;2022-10-24T02:13:38;26.23;;;7.87;;
3637;SDS011;1835;50.068;8.154;2022-10-24T02:16:13;29.83;;;7.43;;
3637;SDS011;1835;50.068;8.154;2022-10-24T02:18:45;32.53;;;7.00;;
3637;SDS011;1835;50.068;8.154;2022-10-24T02:21:16;17.30;;;7.20;;
3637;SDS011;1835;50.068;8.154;2022-10-24T02:23:53;31.57;;;7.23;;
3637;SDS011;1835;50.068;8.154;2022-10-24T02:26:29;17.90;;;6.20;;
3637;SDS011;1835;50.068;8.154;2022-10-24T02:29:00;18.23;;;6.30;;
3637;SDS011;1835;50.068;8.154;2022-10-24T02:31:35;11.30;;;5.30;;
3637;SDS011;1835;50.068;8.154;2022-10-24T02:34:07;27.50;;;7.10;;
3637;SDS011;1835;50.068;8.154;2022-10-24T02:36:42;17.97;;;6.03;;
3637;SDS011;1835;50.068;8.154;2022-10-24T02:39:13;21.73;;;6.07;;
3637;SDS011;1835;50.068;8.154;2022-10-24T02:41:42;21.03;;;6.57;;
3637;SDS011;1835;50.068;8.154;2022-10-24T02:44:12;28.97;;;6.80;;
3637;SDS011;1835;50.068;8.154;2022-10-24T02:46:44;22.03;;;6.93;;
3637;SDS011;1835;50.068;8.154;2022-10-24T02:49:14;25.90;;;6.23;;
3637;SDS011;1835;50.068;8.154;2022-10-24T02:51:42;15.37;;;5.00;;
3637;SDS011;1835;50.068;8.154;2022-10-24T02:54:12;13.83;;;5.10;;
3637;SDS011;1835;50.068;8.154;2022-10-24T02:56:43;12.60;;;5.70;;
3637;SDS011;1835;50.068;8.154;2022-10-24T02:59:15;13.23;;;5.10;;
3637;SDS011;1835;50.068;8.154;2022-10-24T03:01:44;18.47;;;4.30;;
3637;SDS011;1835;50.068;8.154;2022-10-24T03:04:12;11.77;;;4.40;;
3637;SDS011;1835;50.068;8.154;2022-10-24T03:06:40;16.63;;;5.40;;
3637;SDS011;1835;50.068;8.154;2022-10-24T03:09:09;14.27;;;5.00;;
3637;SDS011;1835;50.068;8.154;2022-10-24T03:11:37;35.20;;;6.57;;
3637;SDS011;1835;50.068;8.154;2022-10-24T03:14:05;19.00;;;5.57;;
3637;SDS011;1835;50.068;8.154;2022-10-24T03:16:33;15.33;;;4.93;;
3637;SDS011;1835;50.068;8.154;2022-10-24T03:19:05;19.60;;;5.23;;
3637;SDS011;1835;50.068;8.154;2022-10-24T03:21:33;18.90;;;5.10;;
3637;SDS011;1835;50.068;8.154;2022-10-24T03:24:01;21.80;;;5.87;;
3637;SDS011;1835;50.068;8.154;2022-10-24T03:26:30;19.57;;;5.20;;
3637;SDS011;1835;50.068;8.154;2022-10-24T03:28:58;12.13;;;4.60;;
3637;SDS011;1835;50.068;8.154;2022-10-24T03:31:26;21.93;;;4.43;;
3637;SDS011;1835;50.068;8.154;2022-10-24T03:33:55;23.23;;;5.27;;
3637;SDS011;1835;50.068;8.154;2022-10-24T03:36:25;19.70;;;4.77;;
3637;SDS011;1835;50.068;8.154;2022-10-24T03:38:53;15.20;;;3.77;;
3637;SDS011;1835;50.068;8.154;2022-10-24T03:41:21;15.50;;;4.60;;
3637;SDS011;1835;50.068;8.154;2022-10-24T03:43:49;15.70;;;4.13;;
3637;SDS011;1835;50.068;8.154;2022-10-24T03:46:17;28.97;;;4.40;;
3637;SDS011;1835;50.068;8.154;2022-10-24T03:48:45;22.20;;;4.53;;
3637;SDS011;1835;50.068;8.154;2022-10-24T03:51:13;19.50;;;5.50;;
3637;SDS011;1835;50.068;8.154;2022-10-24T03:53:43;15.50;;;4.67;;
3637;SDS011;1835;50.068;8.154;2022-10-24T03:56:11;9.57;;;3.73;;
3637;SDS011;1835;50.068;8.154;2022-10-24T03:58:39;26.57;;;7.10;;
3637;SDS011;1835;50.068;8.154;2022-10-24T04:01:07;17.97;;;4.50;;
3637;SDS011;1835;50.068;8.154;2022-10-24T04:03:43;6.10;;;3.57;;
3637;SDS011;1835;50.068;8.154;2022-10-24T04:06:12;11.90;;;4.00;;
3637;SDS011;1835;50.068;8.154;2022-10-24T04:08:40;14.50;;;3.37;;
3637;SDS011;1835;50.068;8.154;2022-10-24T04:11:09;32.57;;;4.60;;
3637;SDS011;1835;50.068;8.154;2022-10-24T04:13:38;16.50;;;4.43;;
3637;SDS011;1835;50.068;8.154;2022-10-24T04:16:06;17.43;;;4.03;;
3637;SDS011;1835;50.068;8.154;2022-10-24T04:18:35;18.87;;;4.53;;
3637;SDS011;1835;50.068;8.154;2022-10-24T04:21:03;14.47;;;4.13;;
3637;SDS011;1835;50.068;8.154;2022-10-24T04:23:32;20.07;;;3.77;;
3637;SDS011;1835;50.068;8.154;2022-10-24T04:26:06;21.40;;;4.33;;
3637;SDS011;1835;50.068;8.154;2022-10-24T04:28:35;23.20;;;4.37;;
3637;SDS011;1835;50.068;8.154;2022-10-24T04:31:03;13.73;;;4.63;;
3637;SDS011;1835;50.068;8.154;2022-10-24T04:33:32;24.97;;;4.83;;
3637;SDS011;1835;50.068;8.154;2022-10-24T04:36:03;20.17;;;4.17;;
3637;SDS011;1835;50.068;8.154;2022-10-24T04:38:35;16.83;;;4.43;;
3637;SDS011;1835;50.068;8.154;2022-10-24T04:41:03;21.97;;;4.00;;
3637;SDS011;1835;50.068;8.154;2022-10-24T04:43:38;12.63;;;3.80;;
3637;SDS011;1835;50.068;8.154;2022-10-24T04:46:06;26.87;;;8.33;;
3637;SDS011;1835;50.068;8.154;2022-10-24T04:48:34;29.40;;;5.67;;
3637;SDS011;1835;50.068;8.154;2022-10-24T04:51:03;17.97;;;4.17;;
3637;SDS011;1835;50.068;8.154;2022-10-24T04:53:31;17.33;;;4.13;;
3637;SDS011;1835;50.068;8.154;2022-10-24T04:55:59;14.20;;;3.93;;
3637;SDS011;1835;50.068;8.154;2022-10-24T04:58:27;12.00;;;3.40;;
3637;SDS011;1835;50.068;8.154;2022-10-24T05:00:56;19.10;;;4.13;;
3637;SDS011;1835;50.068;8.154;2022-10-24T05:03:24;21.33;;;4.63;;
3637;SDS011;1835;50.068;8.154;2022-10-24T05:05:52;26.33;;;4.53;;
3637;SDS011;1835;50.068;8.154;2022-10-24T05:08:20;12.13;;;4.03;;
3637;SDS011;1835;50.068;8.154;2022-10-24T05:10:48;16.67;;;4.03;;
3637;SDS011;1835;50.068;8.154;2022-10-24T05:13:16;26.73;;;5.23;;
3637;SDS011;1835;50.068;8.154;2022-10-24T05:15:44;21.50;;;4.37;;
3637;SDS011;1835;50.068;8.154;2022-10-24T05:18:14;10.73;;;4.00;;
3637;SDS011;1835;50.068;8.154;2022-10-24T05:20:42;23.30;;;4.80;;
3637;SDS011;1835;50.068;8.154;2022-10-24T05:23:10;24.00;;;4.30;;
3637;SDS011;1835;50.068;8.154;2022-10-24T05:25:38;25.03;;;5.13;;
3637;SDS011;1835;50.068;8.154;2022-10-24T05:28:06;31.70;;;4.70;;
3637;SDS011;1835;50.068;8.154;2022-10-24T05:30:34;22.43;;;4.60;;
3637;SDS011;1835;50.068;8.154;2022-10-24T05:33:02;28.80;;;5.10;;
3637;SDS011;1835;50.068;8.154;2022-10-24T05:35:31;13.63;;;4.30;;
3637;SDS011;1835;50.068;8.154;2022-10-24T05:37:59;17.00;;;5.13;;
3637;SDS011;1835;50.068;8.154;2022-10-24T05:40:29;11.37;;;3.93;;
3637;SDS011;1835;50.068;8.154;2022-10-24T05:42:57;15.20;;;4.50;;
3637;SDS011;1835;50.068;8.154;2022-10-24T05:45:25;24.27;;;4.93;;
3637;SDS011;1835;50.068;8.154;2022-10-24T05:47:53;13.17;;;4.70;;
3637;SDS011;1835;50.068;8.154;2022-10-24T05:50:21;13.23;;;4.57;;
3637;SDS011;1835;50.068;8.154;2022-10-24T05:52:50;14.40;;;4.67;;
3637;SDS011;1835;50.068;8.154;2022-10-24T05:55:18;10.40;;;4.60;;
3637;SDS011;1835;50.068;8.154;2022-10-24T05:57:46;30.07;;;4.63;;
3637;SDS011;1835;50.068;8.154;2022-10-24T06:00:15;24.83;;;4.30;;
3637;SDS011;1835;50.068;8.154;2022-10-24T06:02:45;12.67;;;4.53;;
3637;SDS011;1835;50.068;8.154;2022-10-24T06:05:13;11.50;;;4.90;;
3637;SDS011;1835;50.068;8.154;2022-10-24T06:07:41;21.23;;;4.30;;
3637;SDS011;1835;50.068;8.154;2022-10-24T06:10:12;16.77;;;5.20;;
3637;SDS011;1835;50.068;8.154;2022-10-24T06:12:40;16.17;;;4.20;;
3637;SDS011;1835;50.068;8.154;2022-10-24T06:15:10;19.03;;;5.10;;
3637;SDS011;1835;50.068;8.154;2022-10-24T06:17:39;20.43;;;4.90;;
3637;SDS011;1835;50.068;8.154;2022-10-24T06:20:08;23.40;;;5.33;;
3637;SDS011;1835;50.068;8.154;2022-10-24T06:22:36;11.90;;;4.83;;
3637;SDS011;1835;50.068;8.154;2022-10-24T06:25:04;17.70;;;5.90;;
3637;SDS011;1835;50.068;8.154;2022-10-24T06:27:34;26.87;;;5.93;;
3637;SDS011;1835;50.068;8.154;2022-10-24T06:30:03;18.07;;;5.50;;
3637;SDS011;1835;50.068;8.154;2022-10-24T06:32:32;19.80;;;4.93;;
3637;SDS011;1835;50.068;8.154;2022-10-24T06:35:01;31.60;;;6.60;;
3637;SDS011;1835;50.068;8.154;2022-10-24T06:37:29;25.63;;;4.70;;
3637;SDS011;1835;50.068;8.154;2022-10-24T06:39:58;9.70;;;3.77;;
3637;SDS011;1835;50.068;8.154;2022-10-24T06:42:26;34.10;;;5.10;;
3637;SDS011;1835;50.068;8.154;2022-10-24T06:44:55;13.37;;;5.10;;
3637;SDS011;1835;50.068;8.154;2022-10-24T06:47:29;17.80;;;5.33;;
3637;SDS011;1835;50.068;8.154;2022-10-24T06:49:57;14.10;;;4.33;;
3637;SDS011;1835;50.068;8.154;2022-10-24T06:52:25;12.50;;;4.23;;
3637;SDS011;1835;50.068;8.154;2022-10-24T06:54:54;18.63;;;4.13;;
3637;SDS011;1835;50.068;8.154;2022-10-24T06:57:22;9.10;;;4.80;;
3637;SDS011;1835;50.068;8.154;2022-10-24T06:59:50;14.93;;;4.87;;
3637;SDS011;1835;50.068;8.154;2022-10-24T07:02:20;23.80;;;4.77;;
3637;SDS011;1835;50.068;8.154;2022-10-24T07:04:48;10.30;;;3.90;;
3637;SDS011;1835;50.068;8.154;2022-10-24T07:07:17;11.23;;;4.17;;
3637;SDS011;1835;50.068;8.154;2022-10-24T07:09:50;19.13;;;4.07;;
3637;SDS011;1835;50.068;8.154;2022-10-24T07:12:20;18.23;;;4.33;;
3637;SDS011;1835;50.068;8.154;2022-10-24T07:14:48;22.13;;;3.60;;
3637;SDS011;1835;50.068;8.154;2022-10-24T07:17:17;30.47;;;5.97;;
3637;SDS011;1835;50.068;8.154;2022-10-24T07:19:50;29.43;;;4.10;;
3637;SDS011;1835;50.068;8.154;2022-10-24T07:22:19;11.03;;;3.47;;
3637;SDS011;1835;50.068;8.154;2022-10-24T07:24:50;7.97;;;4.47;;
3637;SDS011;1835;50.068;8.154;2022-10-24T07:27:20;14.90;;;3.87;;
3637;SDS011;1835;50.068;8.154;2022-10-24T07:29:49;20.67;;;4.43;;
3637;SDS011;1835;50.068;8.154;2022-10-24T07:32:18;28.60;;;4.30;;
3637;SDS011;1835;50.068;8.154;2022-10-24T07:34:47;12.20;;;4.33;;
3637;SDS011;1835;50.068;8.154;2022-10-24T07:37:16;18.30;;;4.30;;
3637;SDS011;1835;50.068;8.154;2022-10-24T07:39:46;12.20;;;4.07;;
3637;SDS011;1835;50.068;8.154;2022-10-24T07:42:14;6.53;;;4.17;;
3637;SDS011;1835;50.068;8.154;2022-10-24T07:44:43;15.67;;;5.03;;
3637;SDS011;1835;50.068;8.154;2022-10-24T07:47:12;9.33;;;3.67;;
3637;SDS011;1835;50.068;8.154;2022-10-24T07:49:41;10.50;;;3.90;;
3637;SDS011;1835;50.068;8.154;2022-10-24T07:52:11;18.27;;;3.73;;
3637;SDS011;1835;50.068;8.154;2022-10-24T07:54:45;15.97;;;4.07;;
3637;SDS011;1835;50.068;8.154;2022-10-24T07:57:18;19.57;;;4.97;;
3637;SDS011;1835;50.068;8.154;2022-10-24T07:59:46;10.57;;;3.67;;
3637;SDS011;1835;50.068;8.154;2022-10-24T08:02:14;6.03;;;3.60;;
3637;SDS011;1835;50.068;8.154;2022-10-24T08:04:45;12.47;;;4.03;;
3637;SDS011;1835;50.068;8.154;2022-10-24T08:07:13;26.07;;;4.10;;
3637;SDS011;1835;50.068;8.154;2022-10-24T08:09:41;11.73;;;3.73;;
3637;SDS011;1835;50.068;8.154;2022-10-24T08:12:11;11.40;;;3.73;;
3637;SDS011;1835;50.068;8.154;2022-10-24T08:14:40;13.80;;;3.77;;
3637;SDS011;1835;50.068;8.154;2022-10-24T08:17:08;19.23;;;4.43;;
3637;SDS011;1835;50.068;8.154;2022-10-24T08:19:37;23.93;;;4.47;;
3637;SDS011;1835;50.068;8.154;2022-10-24T08:22:10;17.50;;;4.13;;
3637;SDS011;1835;50.068;8.154;2022-10-24T08:24:39;13.63;;;3.90;;
3637;SDS011;1835;50.068;8.154;2022-10-24T08:27:08;16.80;;;4.70;;
3637;SDS011;1835;50.068;8.154;2022-10-24T08:29:37;14.33;;;4.77;;
3637;SDS011;1835;50.068;8.154;2022-10-24T08:32:05;7.53;;;4.10;;
3637;SDS011;1835;50.068;8.154;2022-10-24T08:34:33;16.83;;;5.77;;
3637;SDS011;1835;50.068;8.154;2022-10-24T08:37:03;14.20;;;4.20;;
3637;SDS011;1835;50.068;8.154;2022-10-24T08:39:33;14.50;;;4.30;;
3637;SDS011;1835;50.068;8.154;2022-10-24T08:42:02;14.07;;;4.30;;
3637;SDS011;1835;50.068;8.154;2022-10-24T08:44:32;21.10;;;5.17;;
3637;SDS011;1835;50.068;8.154;2022-10-24T08:47:05;23.70;;;4.57;;
3637;SDS011;1835;50.068;8.154;2022-10-24T08:49:44;11.93;;;4.43;;
3637;SDS011;1835;50.068;8.154;2022-10-24T08:52:17;14.43;;;4.20;;
3637;SDS011;1835;50.068;8.154;2022-10-24T08:54:56;7.40;;;3.83;;
3637;SDS011;1835;50.068;8.154;2022-10-24T08:57:32;13.73;;;3.60;;
3637;SDS011;1835;50.068;8.154;2022-10-24T09:00:02;15.57;;;4.57;;
3637;SDS011;1835;50.068;8.154;2022-10-24T09:02:39;6.77;;;3.30;;
3637;SDS011;1835;50.068;8.154;2022-10-24T09:05:16;8.67;;;3.73;;
3637;SDS011;1835;50.068;8.154;2022-10-24T09:07:49;19.30;;;4.03;;
3637;SDS011;1835;50.068;8.154;2022-10-24T09:10:28;17.77;;;4.63;;
3637;SDS011;1835;50.068;8.154;2022-10-24T09:13:09;23.93;;;5.03;;
3637;SDS011;1835;50.068;8.154;2022-10-24T09:15:40;11.60;;;3.60;;
3637;SDS011;1835;50.068;8.154;2022-10-24T09:18:13;16.70;;;3.97;;
3637;SDS011;1835;50.068;8.154;2022-10-24T09:20:46;13.00;;;3.60;;
3637;SDS011;1835;50.068;8.154;2022-10-24T09:23:15;6.00;;;2.73;;
3637;SDS011;1835;50.068;8.154;2022-10-24T09:25:48;13.63;;;3.90;;
3637;SDS011;1835;50.068;8.154;2022-10-24T09:28:19;8.60;;;4.13;;
3637;SDS011;1835;50.068;8.154;2022-10-24T09:30:48;8.77;;;3.63;;
3637;SDS011;1835;50.068;8.154;2022-10-24T09:33:20;19.23;;;3.87;;
3637;SDS011;1835;50.068;8.154;2022-10-24T09:35:55;5.33;;;2.87;;
3637;SDS011;1835;50.068;8.154;2022-10-24T09:38:29;4.90;;;3.20;;
3637;SDS011;1835;50.068;8.154;2022-10-24T09:41:01;14.53;;;3.50;;
3637;SDS011;1835;50.068;8.154;2022-10-24T09:43:34;8.03;;;3.63;;
3637;SDS011;1835;50.068;8.154;2022-10-24T09:46:12;15.00;;;3.70;;
3637;SDS011;1835;50.068;8.154;2022-10-24T09:48:48;7.33;;;3.40;;
3637;SDS011;1835;50.068;8.154;2022-10-24T09:51:20;11.50;;;3.27;;
3637;SDS011;1835;50.068;8.154;2022-10-24T09:53:59;12.57;;;5.00;;
3637;SDS011;1835;50.068;8.154;2022-10-24T09:56:36;8.90;;;3.20;;
3637;SDS011;1835;50.068;8.154;2022-10-24T09:59:17;8.87;;;2.80;;
3637;SDS011;1835;50.068;8.154;2022-10-24T10:01:58;6.67;;;2.70;;
3637;SDS011;1835;50.068;8.154;2022-10-24T10:04:47;17.20;;;3.50;;
3637;SDS011;1835;50.068;8.154;2022-10-24T10:07:32;19.60;;;4.80;;
3637;SDS011;1835;50.068;8.154;2022-10-24T10:10:03;13.60;;;3.73;;
3637;SDS011;1835;50.068;8.154;2022-10-24T10:12:54;19.30;;;3.63;;
3637;SDS011;1835;50.068;8.154;2022-10-24T10:15:44;10.67;;;2.87;;
3637;SDS011;1835;50.068;8.154;2022-10-24T10:18:28;8.87;;;3.10;;
3637;SDS011;1835;50.068;8.154;2022-10-24T10:21:06;6.87;;;2.53;;
3637;SDS011;1835;50.068;8.154;2022-10-24T10:23:40;11.87;;;3.00;;
3637;SDS011;1835;50.068;8.154;2022-10-24T10:26:15;16.93;;;2.70;;
3637;SDS011;1835;50.068;8.154;2022-10-24T10:28:53;14.50;;;2.77;;
3637;SDS011;1835;50.068;8.154;2022-10-24T10:31:26;21.20;;;3.40;;
3637;SDS011;1835;50.068;8.154;2022-10-24T10:34:09;12.70;;;2.33;;
3637;SDS011;1835;50.068;8.154;2022-10-24T10:36:49;7.20;;;3.00;;
3637;SDS011;1835;50.068;8.154;2022-10-24T10:40:00;13.10;;;2.47;;
3637;SDS011;1835;50.068;8.154;2022-10-24T10:42:59;8.13;;;2.40;;
3637;SDS011;1835;50.068;8.154;2022-10-24T10:45:44;4.67;;;1.77;;
3637;SDS011;1835;50.068;8.154;2022-10-24T10:51:09;3.60;;;1.97;;
3637;SDS011;1835;50.068;8.154;2022-10-24T10:53:47;8.10;;;2.80;;
3637;SDS011;1835;50.068;8.154;2022-10-24T10:56:27;11.20;;;2.37;;
3637;SDS011;1835;50.068;8.154;2022-10-24T10:59:04;3.03;;;2.07;;
3637;SDS011;1835;50.068;8.154;2022-10-24T11:01:54;7.93;;;2.20;;
3637;SDS011;1835;50.068;8.154;2022-10-24T11:04:30;11.53;;;3.00;;
3637;SDS011;1835;50.068;8.154;2022-10-24T11:07:04;7.43;;;2.20;;
3637;SDS011;1835;50.068;8.154;2022-10-24T11:09:41;11.13;;;2.13;;
3637;SDS011;1835;50.068;8.154;2022-10-24T11:12:13;4.97;;;2.20;;
3637;SDS011;1835;50.068;8.154;2022-10-24T11:14:47;10.47;;;3.37;;
3637;SDS011;1835;50.068;8.154;2022-10-24T11:17:22;3.80;;;1.57;;
3637;SDS011;1835;50.068;8.154;2022-10-24T11:20:00;5.90;;;2.53;;
3637;SDS011;1835;50.068;8.154;2022-10-24T11:22:35;5.40;;;1.80;;
3637;SDS011;1835;50.068;8.154;2022-10-24T11:25:15;5.30;;;1.93;;
3637;SDS011;1835;50.068;8.154;2022-10-24T11:27:51;8.77;;;1.70;;
3637;SDS011;1835;50.068;8.154;2022-10-24T11:30:34;4.93;;;1.40;;
3637;SDS011;1835;50.068;8.154;2022-10-24T11:33:13;3.53;;;1.43;;
3637;SDS011;1835;50.068;8.154;2022-10-24T11:35:58;3.00;;;1.57;;
3637;SDS011;1835;50.068;8.154;2022-10-24T11:38:35;18.77;;;1.83;;
3637;SDS011;1835;50.068;8.154;2022-10-24T11:44:17;5.60;;;1.47;;
3637;SDS011;1835;50.068;8.154;2022-10-24T11:46:55;2.03;;;1.30;;
3637;SDS011;1835;50.068;8.154;2022-10-24T11:49:36;3.83;;;1.10;;
3637;SDS011;1835;50.068;8.154;2022-10-24T11:52:12;6.00;;;1.63;;
3637;SDS011;1835;50.068;8.154;2022-10-24T11:54:47;2.90;;;1.10;;
3637;SDS011;1835;50.068;8.154;2022-10-24T11:57:23;2.47;;;1.20;;
3637;SDS011;1835;50.068;8.154;2022-10-24T11:59:55;3.43;;;1.10;;
3637;SDS011;1835;50.068;8.154;2022-10-24T12:05:38;6.83;;;1.30;;
3637;SDS011;1835;50.068;8.154;2022-10-24T12:08:36;6.70;;;1.43;;
3637;SDS011;1835;50.068;8.154;2022-10-24T12:11:27;9.53;;;1.77;;
3637;SDS011;1835;50.068;8.154;2022-10-24T12:14:31;4.40;;;1.10;;
3637;SDS011;1835;50.068;8.154;2022-10-24T12:20:35;3.47;;;1.20;;
3637;SDS011;1835;50.068;8.154;2022-10-24T12:23:05;18.07;;;1.87;;
3637;SDS011;1835;50.068;8.154;2022-10-24T12:25:41;3.63;;;1.30;;
3637;SDS011;1835;50.068;8.154;2022-10-24T12:28:17;8.43;;;1.30;;
3637;SDS011;1835;50.068;8.154;2022-10-24T12:33:41;4.07;;;1.43;;
3637;SDS011;1835;50.068;8.154;2022-10-24T12:36:10;10.43;;;1.30;;
3637;SDS011;1835;50.068;8.154;2022-10-24T12:41:36;16.83;;;1.30;;
3637;SDS011;1835;50.068;8.154;2022-10-24T12:53:34;2.97;;;1.60;;
3637;SDS011;1835;50.068;8.154;2022-10-24T12:56:09;1.87;;;1.03;;
3637;SDS011;1835;50.068;8.154;2022-10-24T12:58:42;4.50;;;1.17;;
3637;SDS011;1835;50.068;8.154;2022-10-24T13:01:24;3.90;;;0.93;;
3637;SDS011;1835;50.068;8.154;2022-10-24T13:04:22;2.70;;;1.00;;
3637;SDS011;1835;50.068;8.154;2022-10-24T13:10:37;9.77;;;2.13;;
3637;SDS011;1835;50.068;8.154;2022-10-24T13:16:23;4.63;;;1.07;;
3637;SDS011;1835;50.068;8.154;2022-10-24T13:19:03;1.53;;;1.10;;
3637;SDS011;1835;50.068;8.154;2022-10-24T13:21:44;2.33;;;1.17;;
3637;SDS011;1835;50.068;8.154;2022-10-24T13:24:22;5.60;;;1.70;;
3637;SDS011;1835;50.068;8.154;2022-10-24T13:27:12;2.10;;;1.20;;
3637;SDS011;1835;50.068;8.154;2022-10-24T13:29:58;3.20;;;1.33;;
3637;SDS011;1835;50.068;8.154;2022-10-24T13:32:49;2.80;;;1.40;;
3637;SDS011;1835;50.068;8.154;2022-10-24T13:35:19;4.57;;;1.20;;
3637;SDS011;1835;50.068;8.154;2022-10-24T13:37:51;9.00;;;1.47;;
3637;SDS011;1835;50.068;8.154;2022-10-24T13:40:28;4.10;;;1.10;;
3637;SDS011;1835;50.068;8.154;2022-10-24T13:42:59;3.53;;;1.90;;
3637;SDS011;1835;50.068;8.154;2022-10-24T13:45:38;4.70;;;1.20;;
3637;SDS011;1835;50.068;8.154;2022-10-24T13:48:14;1.10;;;0.90;;
3637;SDS011;1835;50.068;8.154;2022-10-24T13:50:45;8.30;;;1.40;;
3637;SDS011;1835;50.068;8.154;2022-10-24T13:53:23;6.10;;;1.40;;
3637;SDS011;1835;50.068;8.154;2022-10-24T13:55:56;5.87;;;1.37;;
3637;SDS011;1835;50.068;8.154;2022-10-24T13:58:36;3.57;;;1.07;;
3637;SDS011;1835;50.068;8.154;2022-10-24T14:01:13;18.73;;;1.70;;
3637;SDS011;1835;50.068;8.154;2022-10-24T14:03:46;4.53;;;1.20;;
3637;SDS011;1835;50.068;8.154;2022-10-24T14:06:15;5.43;;;1.00;;
3637;SDS011;1835;50.068;8.154;2022-10-24T14:08:51;4.30;;;1.10;;
3637;SDS011;1835;50.068;8.154;2022-10-24T14:11:32;5.70;;;1.53;;
3637;SDS011;1835;50.068;8.154;2022-10-24T14:14:01;6.93;;;1.30;;
3637;SDS011;1835;50.068;8.154;2022-10-24T14:16:34;5.03;;;1.33;;
3637;SDS011;1835;50.068;8.154;2022-10-24T14:19:09;8.80;;;1.57;;
3637;SDS011;1835;50.068;8.154;2022-10-24T14:21:43;2.10;;;1.20;;
3637;SDS011;1835;50.068;8.154;2022-10-24T14:24:13;5.83;;;1.17;;
3637;SDS011;1835;50.068;8.154;2022-10-24T14:26:43;3.93;;;1.00;;
3637;SDS011;1835;50.068;8.154;2022-10-24T14:29:18;4.00;;;1.40;;
3637;SDS011;1835;50.068;8.154;2022-10-24T14:31:54;2.47;;;1.03;;
3637;SDS011;1835;50.068;8.154;2022-10-24T14:34:25;3.03;;;1.10;;
3637;SDS011;1835;50.068;8.154;2022-10-24T14:37:01;4.53;;;1.83;;
3637;SDS011;1835;50.068;8.154;2022-10-24T14:39:32;6.43;;;1.37;;
3637;SDS011;1835;50.068;8.154;2022-10-24T14:42:01;3.53;;;1.30;;
3637;SDS011;1835;50.068;8.154;2022-10-24T14:44:30;1.33;;;0.97;;
3637;SDS011;1835;50.068;8.154;2022-10-24T14:47:13;9.23;;;1.30;;
3637;SDS011;1835;50.068;8.154;2022-10-24T14:49:52;2.00;;;1.20;;
3637;SDS011;1835;50.068;8.154;2022-10-24T14:52:21;5.13;;;1.47;;
3637;SDS011;1835;50.068;8.154;2022-10-24T14:54:54;4.60;;;1.63;;
3637;SDS011;1835;50.068;8.154;2022-10-24T14:57:28;10.33;;;1.87;;
3637;SDS011;1835;50.068;8.154;2022-10-24T14:59:59;3.23;;;2.20;;
3637;SDS011;1835;50.068;8.154;2022-10-24T15:02:34;5.37;;;1.80;;
3637;SDS011;1835;50.068;8.154;2022-10-24T15:05:13;9.47;;;1.87;;
3637;SDS011;1835;50.068;8.154;2022-10-24T15:08:01;2.87;;;1.10;;
3637;SDS011;1835;50.068;8.154;2022-10-24T15:11:02;4.97;;;1.40;;
3637;SDS011;1835;50.068;8.154;2022-10-24T15:13:43;2.87;;;1.57;;
3637;SDS011;1835;50.068;8.154;2022-10-24T15:16:32;6.23;;;1.40;;
3637;SDS011;1835;50.068;8.154;2022-10-24T15:19:04;1.97;;;1.30;;
3637;SDS011;1835;50.068;8.154;2022-10-24T15:21:40;3.83;;;1.47;;
3637;SDS011;1835;50.068;8.154;2022-10-24T15:24:17;4.27;;;1.10;;
3637;SDS011;1835;50.068;8.154;2022-10-24T15:26:49;6.20;;;1.43;;
3637;SDS011;1835;50.068;8.154;2022-10-24T15:29:18;3.50;;;1.17;;
3637;SDS011;1835;50.068;8.154;2022-10-24T15:31:48;3.70;;;1.03;;
3637;SDS011;1835;50.068;8.154;2022-10-24T15:34:19;3.13;;;1.10;;
3637;SDS011;1835;50.068;8.154;2022-10-24T15:36:50;2.37;;;1.10;;
3637;SDS011;1835;50.068;8.154;2022-10-24T15:39:19;2.30;;;0.90;;
3637;SDS011;1835;50.068;8.154;2022-10-24T15:41:50;5.07;;;1.20;;
3637;SDS011;1835;50.068;8.154;2022-10-24T15:44:19;2.13;;;1.13;;
3637;SDS011;1835;50.068;8.154;2022-10-24T15:46:52;3.93;;;1.23;;
3637;SDS011;1835;50.068;8.154;2022-10-24T15:49:22;9.43;;;1.37;;
3637;SDS011;1835;50.068;8.154;2022-10-24T15:51:51;4.90;;;1.43;;
3637;SDS011;1835;50.068;8.154;2022-10-24T15:54:20;12.70;;;2.20;;
3637;SDS011;1835;50.068;8.154;2022-10-24T15:56:52;9.27;;;1.43;;
3637;SDS011;1835;50.068;8.154;2022-10-24T15:59:21;4.57;;;1.23;;
3637;SDS011;1835;50.068;8.154;2022-10-24T16:01:52;9.33;;;1.33;;
3637;SDS011;1835;50.068;8.154;2022-10-24T16:04:24;3.40;;;1.30;;
3637;SDS011;1835;50.068;8.154;2022-10-24T16:06:52;6.73;;;1.37;;
3637;SDS011;1835;50.068;8.154;2022-10-24T16:09:21;1.83;;;1.00;;
3637;SDS011;1835;50.068;8.154;2022-10-24T16:11:52;6.90;;;1.30;;
3637;SDS011;1835;50.068;8.154;2022-10-24T16:14:20;3.20;;;1.40;;
3637;SDS011;1835;50.068;8.154;2022-10-24T16:16:51;8.50;;;1.53;;
3637;SDS011;1835;50.068;8.154;2022-10-24T16:19:20;5.07;;;1.97;;
3637;SDS011;1835;50.068;8.154;2022-10-24T16:21:49;13.10;;;3.43;;